createdAt,value
2022-09-14T00:01:25.424Z,95721.47
2022-09-14T00:04:14.191Z,95711.94
2022-09-14T00:06:41.456Z,95709.69
2022-09-14T00:09:08.357Z,95700.00
2022-09-14T00:11:36.432Z,95702.69
2022-09-14T00:14:05.276Z,95695.81
2022-09-14T00:16:34.690Z,95697.09
2022-09-14T00:19:05.989Z,95716.22
2022-09-14T00:21:37.735Z,95710.16
2022-09-14T00:24:06.021Z,95710.19
2022-09-14T00:26:32.914Z,95710.31
2022-09-14T00:29:04.234Z,95720.25
2022-09-14T00:31:32.513Z,95712.56
2022-09-14T00:33:58.993Z,95706.38
2022-09-14T00:36:27.798Z,95714.81
2022-09-14T00:38:56.587Z,95713.81
2022-09-14T00:41:27.071Z,95711.19
2022-09-14T00:44:03.986Z,95696.06
2022-09-14T00:46:39.401Z,95704.66
2022-09-14T00:49:12.870Z,95703.22
2022-09-14T00:51:45.927Z,95706.59
2022-09-14T00:54:12.264Z,95704.66
2022-09-14T00:56:38.909Z,95696.81
2022-09-14T00:59:21.365Z,95692.66
2022-09-14T01:01:48.898Z,95689.28
2022-09-14T01:04:15.283Z,95679.91
2022-09-14T01:06:52.282Z,95691.16
2022-09-14T01:09:33.759Z,95679.28
2022-09-14T01:12:06.155Z,95694.16
2022-09-14T01:14:47.647Z,95700.81
2022-09-14T01:17:32.394Z,95700.94
2022-09-14T01:20:20.688Z,95700.53
2022-09-14T01:22:59.980Z,95700.81
2022-09-14T01:25:55.197Z,95710.06
2022-09-14T01:28:27.214Z,95704.81
2022-09-14T01:30:58.339Z,95700.25
2022-09-14T01:33:33.077Z,95700.19
2022-09-14T01:36:04.613Z,95709.25
2022-09-14T01:38:36.076Z,95700.47
2022-09-14T01:41:06.912Z,95705.91
2022-09-14T01:43:50.418Z,95703.09
2022-09-14T01:46:20.315Z,95691.94
2022-09-14T01:49:11.907Z,95691.69
2022-09-14T01:51:53.187Z,95695.88
2022-09-14T01:54:22.549Z,95690.19
2022-09-14T01:56:56.818Z,95695.75
2022-09-14T01:59:27.685Z,95701.03
2022-09-14T02:01:59.075Z,95702.56
2022-09-14T02:04:38.343Z,95695.69
2022-09-14T02:07:04.788Z,95693.97
2022-09-14T02:09:31.226Z,95698.72
2022-09-14T02:12:00.594Z,95710.13
2022-09-14T02:14:27.869Z,95705.63
2022-09-14T02:16:54.221Z,95692.94
2022-09-14T02:19:23.819Z,95698.56
2022-09-14T02:21:50.485Z,95706.72
2022-09-14T02:24:17.994Z,95690.72
2022-09-14T02:26:45.404Z,95693.31
2022-09-14T02:29:13.276Z,95684.66
2022-09-14T02:31:55.271Z,95696.94
2022-09-14T02:34:39.922Z,95694.03
2022-09-14T02:37:18.045Z,95698.03
2022-09-14T02:40:12.297Z,95700.31
2022-09-14T02:43:07.448Z,95695.22
2022-09-14T02:46:04.850Z,95690.69
2022-09-14T02:48:41.831Z,95693.28
2022-09-14T02:51:30.340Z,95698.84
2022-09-14T02:54:03.833Z,95706.69
2022-09-14T02:56:31.387Z,95706.94
2022-09-14T02:58:57.864Z,95700.78
2022-09-14T03:01:25.278Z,95705.44
2022-09-14T03:03:51.909Z,95697.63
2022-09-14T03:06:18.295Z,95685.31
2022-09-14T03:08:45.141Z,95690.78
2022-09-14T03:11:12.086Z,95684.03
2022-09-14T03:13:38.694Z,95671.28
2022-09-14T03:16:10.513Z,95682.75
2022-09-14T03:18:37.756Z,95672.66
2022-09-14T03:21:05.148Z,95682.63
2022-09-14T03:23:35.794Z,95668.94
2022-09-14T03:26:05.875Z,95673.06
2022-09-14T03:28:32.167Z,95668.19
2022-09-14T03:31:01.640Z,95677.66
2022-09-14T03:33:27.977Z,95680.09
2022-09-14T03:35:54.271Z,95671.88
2022-09-14T03:38:21.288Z,95675.16
2022-09-14T03:40:48.203Z,95680.31
2022-09-14T03:43:14.633Z,95677.47
2022-09-14T03:45:41.442Z,95669.97
2022-09-14T03:48:11.493Z,95676.09
2022-09-14T03:50:38.307Z,95678.94
2022-09-14T03:53:04.768Z,95682.69
2022-09-14T03:55:31.069Z,95684.63
2022-09-14T03:57:57.355Z,95684.56
2022-09-14T04:00:24.000Z,95690.34
2022-09-14T04:02:50.351Z,95686.25
2022-09-14T04:05:21.103Z,95678.88
2022-09-14T04:07:48.070Z,95672.66
2022-09-14T04:10:14.357Z,95673.72
2022-09-14T04:12:43.923Z,95672.47
2022-09-14T04:15:10.524Z,95669.44
2022-09-14T04:17:36.871Z,95661.53
2022-09-14T04:20:03.877Z,95657.31
2022-09-14T04:22:30.160Z,95654.84
2022-09-14T04:24:56.460Z,95669.69
2022-09-14T04:27:23.131Z,95672.00
2022-09-14T04:29:50.343Z,95666.38
2022-09-14T04:32:17.324Z,95669.06
2022-09-14T04:34:43.598Z,95665.81
2022-09-14T04:37:09.894Z,95661.34
2022-09-14T04:39:36.181Z,95657.06
2022-09-14T04:42:02.485Z,95663.22
2022-09-14T04:44:28.772Z,95664.63
2022-09-14T04:46:55.370Z,95679.25
2022-09-14T04:49:21.876Z,95678.09
2022-09-14T04:51:48.679Z,95684.69
2022-09-14T04:54:17.254Z,95678.38
2022-09-14T04:56:44.316Z,95673.09
2022-09-14T04:59:11.112Z,95666.38
2022-09-14T05:01:40.390Z,95658.00
2022-09-14T05:04:08.525Z,95654.66
2022-09-14T05:06:37.775Z,95652.69
2022-09-14T05:09:06.601Z,95656.63
2022-09-14T05:11:35.352Z,95664.28
2022-09-14T05:14:02.430Z,95669.25
2022-09-14T05:16:34.169Z,95673.94
2022-09-14T05:19:04.159Z,95671.97
2022-09-14T05:21:32.096Z,95672.88
2022-09-14T05:24:01.353Z,95668.56
2022-09-14T05:26:29.879Z,95669.25
2022-09-14T05:28:59.284Z,95674.84
2022-09-14T05:31:27.112Z,95679.28
2022-09-14T05:33:54.023Z,95679.97
2022-09-14T05:36:20.452Z,95679.06
2022-09-14T05:38:46.860Z,95675.13
2022-09-14T05:41:15.094Z,95680.09
2022-09-14T05:43:42.226Z,95683.06
2022-09-14T05:46:12.437Z,95675.25
2022-09-14T05:48:39.824Z,95672.84
2022-09-14T05:51:11.799Z,95669.41
2022-09-14T05:53:38.105Z,95661.31
2022-09-14T05:56:11.077Z,95662.75
2022-09-14T05:58:38.734Z,95662.44
2022-09-14T06:01:14.115Z,95662.56
2022-09-14T06:03:41.213Z,95659.78
2022-09-14T06:06:08.789Z,95657.53
2022-09-14T06:08:35.668Z,95660.22
2022-09-14T06:11:23.829Z,95658.59
2022-09-14T06:13:51.177Z,95649.50
2022-09-14T06:16:19.658Z,95660.56
2022-09-14T06:18:46.747Z,95658.00
2022-09-14T06:21:18.836Z,95660.53
2022-09-14T06:23:46.260Z,95644.59
2022-09-14T06:26:12.953Z,95654.28
2022-09-14T06:28:39.443Z,95653.25
2022-09-14T06:31:07.627Z,95650.69
2022-09-14T06:33:34.959Z,95655.03
2022-09-14T06:36:09.050Z,95661.56
2022-09-14T06:38:35.550Z,95665.59
2022-09-14T06:41:05.272Z,95672.91
2022-09-14T06:43:33.961Z,95678.88
2022-09-14T06:46:10.889Z,95681.06
2022-09-14T06:48:45.354Z,95690.28
2022-09-14T06:51:17.641Z,95689.97
2022-09-14T06:53:45.742Z,95691.31
2022-09-14T06:56:13.048Z,95697.16
2022-09-14T06:58:39.984Z,95691.97
2022-09-14T07:01:12.626Z,95684.38
2022-09-14T07:03:39.915Z,95678.38
2022-09-14T07:06:18.249Z,95688.34
2022-09-14T07:08:45.093Z,95677.00
2022-09-14T07:11:15.676Z,95684.22
2022-09-14T07:13:42.038Z,95681.97
2022-09-14T07:16:09.123Z,95686.66
2022-09-14T07:18:36.371Z,95674.34
2022-09-14T07:21:12.459Z,95686.28
2022-09-14T07:23:41.604Z,95690.66
2022-09-14T07:26:13.704Z,95698.72
2022-09-14T07:28:41.091Z,95683.16
2022-09-14T07:31:24.672Z,95688.03
2022-09-14T07:33:59.658Z,95686.00
2022-09-14T07:36:28.683Z,95685.06
2022-09-14T07:38:58.329Z,95692.66
2022-09-14T07:41:27.190Z,95698.94
2022-09-14T07:43:56.706Z,95713.22
2022-09-14T07:46:23.980Z,95742.03
2022-09-14T07:48:55.678Z,95758.47
2022-09-14T07:51:22.699Z,95771.41
2022-09-14T07:53:49.232Z,95763.09
2022-09-14T07:56:16.874Z,95742.63
2022-09-14T07:58:44.352Z,95752.41
2022-09-14T08:01:13.757Z,95763.53
2022-09-14T08:03:42.848Z,95763.03
2022-09-14T08:06:12.014Z,95765.66
2022-09-14T08:08:40.332Z,95763.44
2022-09-14T08:11:11.096Z,95771.06
2022-09-14T08:13:39.717Z,95769.00
2022-09-14T08:16:06.303Z,95771.88
2022-09-14T08:18:34.090Z,95777.56
2022-09-14T08:21:06.496Z,95784.97
2022-09-14T08:23:33.305Z,95771.88
2022-09-14T08:26:08.259Z,95775.56
2022-09-14T08:28:35.847Z,95775.28
2022-09-14T08:31:04.719Z,95776.41
2022-09-14T08:33:33.546Z,95806.44
2022-09-14T08:36:00.678Z,95797.94
2022-09-14T08:38:27.219Z,95794.97
2022-09-14T08:40:54.390Z,95799.28
2022-09-14T08:43:24.451Z,95800.03
2022-09-14T08:45:55.013Z,95809.44
2022-09-14T08:48:30.954Z,95798.50
2022-09-14T08:50:57.375Z,95788.78
2022-09-14T08:53:25.748Z,95781.59
2022-09-14T08:56:07.002Z,95793.91
2022-09-14T08:59:02.242Z,95782.06
2022-09-14T09:01:36.209Z,95767.69
2022-09-14T09:04:14.544Z,95763.63
2022-09-14T09:06:52.248Z,95756.50
2022-09-14T09:09:25.470Z,95745.00
2022-09-14T09:11:53.980Z,95736.59
2022-09-14T09:14:33.073Z,95730.69
2022-09-14T09:17:04.216Z,95732.84
2022-09-14T09:19:40.042Z,95718.09
2022-09-14T09:22:16.776Z,95724.97
2022-09-14T09:24:52.184Z,95733.09
2022-09-14T09:27:18.702Z,95732.66
2022-09-14T09:29:45.238Z,95730.78
2022-09-14T09:32:16.599Z,95721.47
2022-09-14T09:34:44.521Z,95719.84
2022-09-14T09:37:21.236Z,95724.63
2022-09-14T09:39:47.939Z,95719.25
2022-09-14T09:42:21.417Z,95710.78
2022-09-14T09:45:04.018Z,95709.63
2022-09-14T09:47:34.640Z,95705.34
2022-09-14T09:50:21.395Z,95699.03
2022-09-14T09:52:57.664Z,95696.03
2022-09-14T09:55:32.088Z,95702.75
2022-09-14T09:58:21.769Z,95693.25
2022-09-14T10:01:32.884Z,95671.72
2022-09-14T10:04:06.862Z,95683.22
2022-09-14T10:06:43.239Z,95668.72
2022-09-14T10:09:16.074Z,95664.41
2022-09-14T10:11:43.055Z,95667.41
2022-09-14T10:14:31.341Z,95664.50
2022-09-14T10:17:21.449Z,95648.00
2022-09-14T10:19:56.055Z,95665.78
2022-09-14T10:22:29.582Z,95648.59
2022-09-14T10:25:00.004Z,95653.13
2022-09-14T10:27:39.568Z,95640.56
2022-09-14T10:30:12.985Z,95642.63
2022-09-14T10:32:42.404Z,95639.25
2022-09-14T10:35:13.795Z,95624.16
2022-09-14T10:37:56.371Z,95624.38
2022-09-14T10:40:45.690Z,95614.03
2022-09-14T10:43:23.251Z,95622.75
2022-09-14T10:45:51.795Z,95626.72
2022-09-14T10:48:31.192Z,95618.22
2022-09-14T10:51:08.911Z,95626.03
2022-09-14T10:53:55.526Z,95631.97
2022-09-14T10:56:26.937Z,95638.13
2022-09-14T10:59:00.407Z,95625.91
2022-09-14T11:01:55.038Z,95620.78
2022-09-14T11:04:33.730Z,95626.84
2022-09-14T11:07:09.955Z,95622.31
2022-09-14T11:09:46.305Z,95614.88
2022-09-14T11:12:15.216Z,95617.84
2022-09-14T11:15:05.565Z,95613.34
2022-09-14T11:17:55.017Z,95607.41
2022-09-14T11:20:32.656Z,95619.81
2022-09-14T11:23:17.364Z,95634.72
2022-09-14T11:25:59.814Z,95620.31
2022-09-14T11:28:37.919Z,95621.25
2022-09-14T11:31:12.128Z,95626.22
2022-09-14T11:33:50.820Z,95611.41
2022-09-14T11:36:28.244Z,95616.28
2022-09-14T11:39:06.067Z,95615.97
2022-09-14T11:41:49.626Z,95619.13
2022-09-14T11:44:27.003Z,95625.16
2022-09-14T11:47:05.431Z,95629.50
2022-09-14T11:49:49.815Z,95625.91
2022-09-14T11:52:25.530Z,95634.41
2022-09-14T11:54:53.294Z,95624.00
2022-09-14T11:57:26.254Z,95630.94
2022-09-14T11:59:54.267Z,95629.09
2022-09-14T12:02:23.463Z,95627.13
2022-09-14T12:05:08.293Z,95628.72
2022-09-14T12:07:46.798Z,95637.22
2022-09-14T12:10:17.368Z,95642.56
2022-09-14T12:12:46.319Z,95652.81
2022-09-14T12:15:34.150Z,95646.09
2022-09-14T12:18:06.647Z,95654.38
2022-09-14T12:20:52.521Z,95646.06
2022-09-14T12:23:41.069Z,95663.34
2022-09-14T12:26:10.423Z,95660.75
2022-09-14T12:28:39.748Z,95664.69
2022-09-14T12:31:13.063Z,95673.22
2022-09-14T12:33:43.764Z,95677.63
2022-09-14T12:36:37.447Z,95683.56
2022-09-14T12:39:24.443Z,95679.88
2022-09-14T12:41:53.527Z,95694.06
2022-09-14T12:44:41.545Z,95693.50
2022-09-14T12:47:25.911Z,95716.19
2022-09-14T12:49:54.207Z,95705.53
2022-09-14T12:52:29.700Z,95714.97
2022-09-14T12:55:23.215Z,95708.75
2022-09-14T12:58:09.643Z,95716.22
2022-09-14T13:00:55.655Z,95727.66
2022-09-14T13:03:58.057Z,95718.44
2022-09-14T13:06:32.489Z,95710.59
2022-09-14T13:08:59.708Z,95692.44
2022-09-14T13:11:35.499Z,95678.13
2022-09-14T13:14:02.341Z,95675.13
2022-09-14T13:16:37.638Z,95688.13
2022-09-14T13:19:11.280Z,95693.06
2022-09-14T13:21:47.469Z,95689.28
2022-09-14T13:24:34.585Z,95696.38
2022-09-14T13:27:02.439Z,95683.66
2022-09-14T13:29:29.479Z,95682.19
2022-09-14T13:32:02.544Z,95689.00
2022-09-14T13:34:36.921Z,95678.56
2022-09-14T13:37:06.057Z,95681.53
2022-09-14T13:39:36.501Z,95684.75
2022-09-14T13:42:04.933Z,95686.97
2022-09-14T13:44:35.964Z,95688.47
2022-09-14T13:47:06.177Z,95688.53
2022-09-14T13:49:35.279Z,95683.28
2022-09-14T13:52:38.917Z,95680.06
2022-09-14T13:55:20.357Z,95670.38
2022-09-14T13:58:11.521Z,95665.53
2022-09-14T14:00:59.990Z,95668.88
2022-09-14T14:03:47.011Z,95664.09
2022-09-14T14:06:26.528Z,95664.34
2022-09-14T14:08:58.176Z,95662.84
2022-09-14T14:11:36.740Z,95659.72
2022-09-14T14:14:31.508Z,95650.56
2022-09-14T14:17:13.297Z,95657.63
2022-09-14T14:19:41.063Z,95653.47
2022-09-14T14:22:13.541Z,95659.53
2022-09-14T14:25:11.715Z,95663.84
2022-09-14T14:27:36.492Z,95651.41
2022-09-14T14:30:21.907Z,95653.19
2022-09-14T14:32:52.835Z,95647.97
2022-09-14T14:35:22.775Z,95641.75
2022-09-14T14:37:50.566Z,95650.50
2022-09-14T14:40:18.133Z,95638.41
2022-09-14T14:42:45.327Z,95644.53
2022-09-14T14:45:18.760Z,95647.94
2022-09-14T14:47:47.173Z,95648.34
2022-09-14T14:50:18.821Z,95638.34
2022-09-14T14:52:45.137Z,95645.91
2022-09-14T14:55:12.057Z,95648.38
2022-09-14T14:57:38.864Z,95641.50
2022-09-14T15:00:13.015Z,95635.09
2022-09-14T15:02:39.292Z,95644.50
2022-09-14T15:05:06.294Z,95649.63
2022-09-14T15:07:37.080Z,95646.25
2022-09-14T15:10:05.374Z,95645.91
2022-09-14T15:12:32.316Z,95643.81
2022-09-14T15:14:58.887Z,95656.44
2022-09-14T15:17:25.384Z,95658.81
2022-09-14T15:19:52.494Z,95655.25
2022-09-14T15:22:19.395Z,95643.16
2022-09-14T15:24:45.681Z,95644.66
2022-09-14T15:27:11.967Z,95647.38
2022-09-14T15:29:38.456Z,95649.75
2022-09-14T15:32:05.055Z,95644.19
2022-09-14T15:34:31.385Z,95647.66
2022-09-14T15:36:58.799Z,95643.78
2022-09-14T15:39:27.240Z,95637.34
2022-09-14T15:41:54.396Z,95634.88
2022-09-14T15:44:21.510Z,95632.28
2022-09-14T15:46:48.328Z,95626.66
2022-09-14T15:49:17.868Z,95618.75
2022-09-14T15:51:46.196Z,95599.59
2022-09-14T15:54:14.080Z,95594.13
2022-09-14T15:56:40.627Z,95587.66
2022-09-14T15:59:07.273Z,95589.09
2022-09-14T16:01:33.843Z,95582.66
2022-09-14T16:04:02.923Z,95577.03
2022-09-14T16:06:30.060Z,95566.44
2022-09-14T16:08:57.533Z,95563.72
2022-09-14T16:11:24.404Z,95560.34
2022-09-14T16:13:51.518Z,95554.75
2022-09-14T16:16:19.588Z,95559.63
2022-09-14T16:18:47.191Z,95560.47
2022-09-14T16:21:23.334Z,95564.97
2022-09-14T16:23:52.768Z,95564.78
2022-09-14T16:26:24.679Z,95571.38
2022-09-14T16:28:52.189Z,95581.34
2022-09-14T16:31:25.635Z,95583.28
2022-09-14T16:33:57.978Z,95586.00
2022-09-14T16:36:27.475Z,95588.72
2022-09-14T16:38:57.324Z,95596.13
2022-09-14T16:41:24.760Z,95590.19
2022-09-14T16:43:55.925Z,95586.59
2022-09-14T16:46:22.773Z,95579.09
2022-09-14T16:48:50.071Z,95587.03
2022-09-14T16:51:19.204Z,95588.78
2022-09-14T16:53:47.213Z,95587.84
2022-09-14T16:56:15.218Z,95578.75
2022-09-14T16:58:43.760Z,95583.88
2022-09-14T17:01:10.092Z,95583.13
2022-09-14T17:03:37.296Z,95580.31
2022-09-14T17:06:06.334Z,95577.56
2022-09-14T17:08:34.884Z,95588.34
2022-09-14T17:11:03.857Z,95591.41
2022-09-14T17:13:31.572Z,95596.59
2022-09-14T17:16:19.321Z,95587.66
2022-09-14T17:18:48.727Z,95599.69
2022-09-14T17:21:21.726Z,95596.41
2022-09-14T17:23:48.764Z,95606.41
2022-09-14T17:26:18.524Z,95610.66
2022-09-14T17:28:47.242Z,95608.06
2022-09-14T17:31:18.257Z,95609.78
2022-09-14T17:33:45.000Z,95598.16
2022-09-14T17:36:12.234Z,95595.28
2022-09-14T17:38:41.116Z,95587.16
2022-09-14T17:41:10.113Z,95581.66
2022-09-14T17:43:38.102Z,95587.41
2022-09-14T17:46:06.338Z,95576.88
2022-09-14T17:48:35.743Z,95600.81
2022-09-14T17:51:06.599Z,95597.88
2022-09-14T17:53:41.382Z,95604.63
2022-09-14T17:56:09.745Z,95596.59
2022-09-14T17:58:36.759Z,95597.66
2022-09-14T18:01:15.629Z,95590.50
2022-09-14T18:03:43.759Z,95601.69
2022-09-14T18:06:12.303Z,95595.13
2022-09-14T18:08:39.869Z,95591.63
2022-09-14T18:11:14.621Z,95593.19
2022-09-14T18:13:47.745Z,95592.91
2022-09-14T18:16:16.645Z,95592.75
2022-09-14T18:18:43.430Z,95594.50
2022-09-14T18:21:10.219Z,95585.44
2022-09-14T18:23:37.575Z,95586.34
2022-09-14T18:26:05.658Z,95598.13
2022-09-14T18:28:32.846Z,95604.56
2022-09-14T18:31:08.056Z,95613.59
2022-09-14T18:33:35.253Z,95587.91
2022-09-14T18:36:02.652Z,95607.53
2022-09-14T18:38:29.930Z,95631.38
2022-09-14T18:41:03.233Z,95658.69
2022-09-14T18:43:29.710Z,95704.69
2022-09-14T18:45:56.035Z,95676.13
2022-09-14T18:48:22.564Z,95669.41
2022-09-14T18:50:48.863Z,95684.97
2022-09-14T18:53:15.155Z,95665.69
2022-09-14T18:55:41.441Z,95638.81
2022-09-14T18:58:07.802Z,95651.56
2022-09-14T19:00:34.526Z,95684.53
2022-09-14T19:03:01.104Z,95712.44
2022-09-14T19:05:30.009Z,95725.59
2022-09-14T19:07:56.533Z,95676.66
2022-09-14T19:10:23.054Z,95649.06
2022-09-14T19:12:49.394Z,95678.91
2022-09-14T19:15:15.858Z,95680.84
2022-09-14T19:17:45.535Z,95670.41
2022-09-14T19:20:14.769Z,95681.06
2022-09-14T19:22:41.138Z,95687.69
2022-09-14T19:25:07.942Z,95684.47
2022-09-14T19:27:34.321Z,95681.16
2022-09-14T19:30:01.078Z,95700.22
2022-09-14T19:32:29.780Z,95696.50
2022-09-14T19:34:56.155Z,95690.13
2022-09-14T19:37:23.861Z,95676.25
2022-09-14T19:39:50.685Z,95674.28
2022-09-14T19:42:17.313Z,95679.19
2022-09-14T19:44:43.726Z,95689.44
2022-09-14T19:47:10.022Z,95688.94
2022-09-14T19:49:36.373Z,95676.69
2022-09-14T19:52:03.316Z,95685.69
2022-09-14T19:54:29.610Z,95672.63
2022-09-14T19:56:55.898Z,95675.56
2022-09-14T19:59:22.403Z,95669.03
2022-09-14T20:01:49.476Z,95673.97
2022-09-14T20:04:18.132Z,95663.41
2022-09-14T20:06:46.178Z,95648.69
2022-09-14T20:09:19.728Z,95648.25
2022-09-14T20:11:48.048Z,95632.47
2022-09-14T20:14:17.536Z,95623.03
2022-09-14T20:16:46.639Z,95604.59
2022-09-14T20:19:15.251Z,95606.16
2022-09-14T20:21:43.117Z,95601.44
2022-09-14T20:24:16.665Z,95589.56
2022-09-14T20:26:45.604Z,95589.53
2022-09-14T20:29:12.351Z,95585.63
2022-09-14T20:31:38.972Z,95598.16
2022-09-14T20:34:05.540Z,95599.03
2022-09-14T20:36:32.320Z,95604.34
2022-09-14T20:38:59.495Z,95604.66
2022-09-14T20:41:31.850Z,95616.88
2022-09-14T20:43:58.226Z,95623.50
2022-09-14T20:46:34.994Z,95647.84
2022-09-14T20:49:02.897Z,95657.22
2022-09-14T20:51:29.187Z,95662.75
2022-09-14T20:53:58.354Z,95680.50
2022-09-14T20:56:27.305Z,95683.31
2022-09-14T20:58:55.580Z,95695.41
2022-09-14T21:01:24.527Z,95698.28
2022-09-14T21:03:51.561Z,95704.63
2022-09-14T21:06:21.040Z,95710.94
2022-09-14T21:08:47.810Z,95731.19
2022-09-14T21:11:17.192Z,95753.28
2022-09-14T21:13:46.830Z,95750.19
2022-09-14T21:16:14.891Z,95750.34
2022-09-14T21:18:42.141Z,95757.56
2022-09-14T21:21:14.229Z,95754.66
2022-09-14T21:23:41.053Z,95751.97
2022-09-14T21:26:09.408Z,95756.47
2022-09-14T21:28:37.307Z,95743.81
2022-09-14T21:31:09.650Z,95740.75
2022-09-14T21:33:38.395Z,95742.19
2022-09-14T21:36:06.569Z,95740.53
2022-09-14T21:38:32.940Z,95735.00
2022-09-14T21:40:59.454Z,95740.91
2022-09-14T21:43:26.175Z,95741.75
2022-09-14T21:45:53.055Z,95745.22
2022-09-14T21:48:19.847Z,95758.47
2022-09-14T21:50:47.548Z,95736.84
2022-09-14T21:53:14.029Z,95736.47
2022-09-14T21:55:41.034Z,95743.22
2022-09-14T21:58:07.750Z,95740.59
2022-09-14T22:00:34.983Z,95725.09
2022-09-14T22:03:01.409Z,95727.75
2022-09-14T22:05:27.887Z,95722.59
2022-09-14T22:07:54.190Z,95730.41
2022-09-14T22:10:20.703Z,95737.53
2022-09-14T22:12:48.391Z,95749.41
2022-09-14T22:15:15.857Z,95754.09
2022-09-14T22:17:42.175Z,95757.56
2022-09-14T22:20:08.587Z,95754.50
2022-09-14T22:22:34.889Z,95764.13
2022-09-14T22:25:01.229Z,95774.94
2022-09-14T22:27:27.527Z,95774.94
2022-09-14T22:29:53.845Z,95779.84
2022-09-14T22:32:20.623Z,95782.06
2022-09-14T22:34:49.585Z,95772.66
2022-09-14T22:37:16.137Z,95785.75
2022-09-14T22:39:42.449Z,95796.00
2022-09-14T22:42:08.747Z,95795.38
2022-09-14T22:44:35.041Z,95794.34
2022-09-14T22:47:01.315Z,95791.03
2022-09-14T22:49:27.679Z,95788.56
2022-09-14T22:51:54.019Z,95791.16
2022-09-14T22:54:20.419Z,95804.84
2022-09-14T22:56:46.757Z,95815.91
2022-09-14T22:59:13.077Z,95817.69
2022-09-14T23:01:41.360Z,95831.75
2022-09-14T23:04:11.404Z,95823.78
2022-09-14T23:06:40.601Z,95825.66
2022-09-14T23:09:09.063Z,95827.44
2022-09-14T23:11:35.462Z,95822.59
2022-09-14T23:14:02.083Z,95819.09
2022-09-14T23:16:30.525Z,95824.88
2022-09-14T23:19:01.009Z,95820.81
2022-09-14T23:21:28.631Z,95819.75
2022-09-14T23:23:58.685Z,95814.63
2022-09-14T23:26:25.722Z,95819.75
2022-09-14T23:29:03.589Z,95824.44
2022-09-14T23:31:32.004Z,95805.47
2022-09-14T23:34:00.217Z,95809.94
2022-09-14T23:36:27.238Z,95817.53
2022-09-14T23:38:53.816Z,95814.22
2022-09-14T23:41:21.833Z,95816.44
2022-09-14T23:43:48.688Z,95814.44
2022-09-14T23:46:16.038Z,95819.31
2022-09-14T23:48:42.452Z,95824.63
2022-09-14T23:51:10.659Z,95823.00
2022-09-14T23:53:37.822Z,95809.50
2022-09-14T23:56:04.991Z,95815.03
2022-09-14T23:58:32.057Z,95816.06
